地図

経路データ

SID SEASON NUMBER BASIN SUBBASIN NAME ISO_TIME NATURE LAT LON WMO_WIND WMO_PRES WMO_AGENCY TRACK_TYPE DIST2LAND LANDFALL IFLAG USA_AGENCY USA_ATCF_ID USA_LAT USA_LON USA_RECORD USA_STATUS USA_WIND USA_PRES USA_SSHS USA_R34_NE USA_R34_SE USA_R34_SW USA_R34_NW USA_R50_NE USA_R50_SE USA_R50_SW USA_R50_NW USA_R64_NE USA_R64_SE USA_R64_SW USA_R64_NW USA_POCI USA_ROCI USA_RMW USA_EYE TOKYO_LAT TOKYO_LON TOKYO_GRADE TOKYO_WIND TOKYO_PRES TOKYO_R50_DIR TOKYO_R50_LONG TOKYO_R50_SHORT TOKYO_R30_DIR TOKYO_R30_LONG TOKYO_R30_SHORT TOKYO_LAND CMA_LAT CMA_LON CMA_CAT CMA_WIND CMA_PRES HKO_LAT HKO_LON HKO_CAT HKO_WIND HKO_PRES NEWDELHI_LAT NEWDELHI_LON NEWDELHI_GRADE NEWDELHI_WIND NEWDELHI_PRES NEWDELHI_CI NEWDELHI_DP NEWDELHI_POCI REUNION_LAT REUNION_LON REUNION_TYPE REUNION_WIND REUNION_PRES REUNION_TNUM REUNION_CI REUNION_RMW REUNION_R34_NE REUNION_R34_SE REUNION_R34_SW REUNION_R34_NW REUNION_R50_NE REUNION_R50_SE REUNION_R50_SW REUNION_R50_NW REUNION_R64_NE REUNION_R64_SE REUNION_R64_SW REUNION_R64_NW BOM_LAT BOM_LON BOM_TYPE BOM_WIND BOM_PRES BOM_TNUM BOM_CI BOM_RMW BOM_R34_NE BOM_R34_SE BOM_R34_SW BOM_R34_NW BOM_R50_NE BOM_R50_SE BOM_R50_SW BOM_R50_NW BOM_R64_NE BOM_R64_SE BOM_R64_SW BOM_R64_NW BOM_ROCI BOM_POCI BOM_EYE BOM_POS_METHOD BOM_PRES_METHOD NADI_LAT NADI_LON NADI_CAT NADI_WIND NADI_PRES WELLINGTON_LAT WELLINGTON_LON WELLINGTON_WIND WELLINGTON_PRES DS824_LAT DS824_LON DS824_STAGE DS824_WIND DS824_PRES TD9636_LAT TD9636_LON TD9636_STAGE TD9636_WIND TD9636_PRES TD9635_LAT TD9635_LON TD9635_WIND TD9635_PRES TD9635_ROCI NEUMANN_LAT NEUMANN_LON NEUMANN_CLASS NEUMANN_WIND NEUMANN_PRES MLC_LAT MLC_LON MLC_CLASS MLC_WIND MLC_PRES USA_GUST BOM_GUST BOM_GUST_PER REUNION_GUST REUNION_GUST_PER USA_SEAHGT USA_SEARAD_NE USA_SEARAD_SE USA_SEARAD_SW USA_SEARAD_NW STORM_SPEED STORM_DIR
1975050S18041 1975 23 SI MM HELOSE 1975-02-19 06:00:00 TS -18.2000 41.2000 reunion main 241 241 _____O______O_ -1 -18.2000 41.2000 2 9.90000 -18.2000 41.2000 TC 25 6 0
1975050S18041 1975 23 SI MM HELOSE 1975-02-19 09:00:00 TS -18.4775 41.2025 main 268 268 _____P______P_ -1 -18.4775 41.2025 2 -18.4775 41.2025 TC 27 5 178
1975050S18041 1975 23 SI MM HELOSE 1975-02-19 12:00:00 TS -18.7000 41.2000 reunion main 287 287 _____O______O_ -1 -18.7000 41.2000 99 9.90000 -18.7000 41.2000 TC 30 4 0
1975050S18041 1975 23 SI MM HELOSE 1975-02-19 15:00:00 TS -18.8425 41.1925 main 297 297 _____P______P_ -1 -18.8425 41.1925 99 -18.8425 41.1925 TC 30 3 0
1975050S18041 1975 23 SI MM HELOSE 1975-02-19 18:00:00 TS -19.0000 41.2000 reunion main 302 302 _____O______O_ -1 -19.0000 41.2000 99 9.90000 -19.0000 41.2000 TC 30 5 176
1975050S18041 1975 23 SI MM HELOSE 1975-02-19 21:00:00 TS -19.2925 41.2425 main 311 301 _____P______P_ -1 -19.2925 41.2425 99 -19.2925 41.2425 TC 30 6 171
1975050S18041 1975 23 SI MM HELOSE 1975-02-20 00:00:00 TS -19.6000 41.3000 reunion main 302 290 _____O______O_ -1 -19.6000 41.3000 99 9.90000 -19.6000 41.3000 TC 30 5 171
1975050S18041 1975 23 SI MM HELOSE 1975-02-20 03:00:00 TS -19.7850 41.3277 main 290 268 _____P______P_ -1 -19.7850 41.3277 99 -19.7850 41.3277 TC 30 4 167
1975050S18041 1975 23 SI MM HELOSE 1975-02-20 06:00:00 TS -20.0000 41.4000 reunion main 268 226 _____O______O_ -1 -20.0000 41.4000 2 9.90000 -20.0000 41.4000 TC 30 6 158
1975050S18041 1975 23 SI MM HELOSE 1975-02-20 09:00:00 TS -20.3776 41.5848 main 226 188 _____P______P_ -1 -20.3776 41.5848 2 -20.3776 41.5848 TC 30 9 155
1975050S18041 1975 23 SI MM HELOSE 1975-02-20 12:00:00 TS -20.8000 41.8000 reunion main 188 158 _____O______O_ -1 -20.8000 41.8000 99 9.90000 -20.8000 41.8000 TC 30 8 154
1975050S18041 1975 23 SI MM HELOSE 1975-02-20 15:00:00 TS -21.1350 41.9726 main 158 135 _____P______P_ -1 -21.1350 41.9726 99 -21.1350 41.9726 TC 30 8 158
1975050S18041 1975 23 SI MM HELOSE 1975-02-20 18:00:00 TS -21.5000 42.1000 reunion main 135 105 _____O______O_ -1 -21.5000 42.1000 99 9.90000 -21.5000 42.1000 TC 30 9 166
1975050S18041 1975 23 SI MM HELOSE 1975-02-20 21:00:00 TS -21.9924 42.2023 main 105 102 _____P______P_ -1 -21.9924 42.2023 99 -21.9924 42.2023 TC 30 10 175
1975050S18041 1975 23 SI MM HELOSE 1975-02-21 00:00:00 TS -22.5000 42.2000 reunion main 105 105 _____O______O_ -1 -22.5000 42.2000 99 9.90000 -22.5000 42.2000 TC 30 10 190
1975050S18041 1975 23 SI MM HELOSE 1975-02-21 03:00:00 TS -22.9601 42.0155 main 144 144 _____P______P_ -1 -22.9601 42.0155 99 -22.9601 42.0155 TC 30 9 205
1975050S18041 1975 23 SI MM HELOSE 1975-02-21 06:00:00 TS -23.3000 41.8000 reunion main 172 172 _____O______O_ -1 -23.3000 41.8000 2 9.90000 -23.3000 41.8000 TC 30 5 207
1975050S18041 1975 23 SI MM HELOSE 1975-02-21 09:00:00 TS -23.4374 41.7497 main 186 186 _____P______P_ -1 -23.4374 41.7497 2 -23.4374 41.7497 TC 30 2 205
1975050S18041 1975 23 SI MM HELOSE 1975-02-21 12:00:00 TS -23.5000 41.7000 reunion main 190 190 _____O______O_ -1 -23.5000 41.7000 99 9.90000 -23.5000 41.7000 TC 30 3 225
1975050S18041 1975 23 SI MM HELOSE 1975-02-21 15:00:00 TS -23.6576 41.5076 main 213 213 _____P______P_ -1 -23.6576 41.5076 99 -23.6576 41.5076 TC 30 5 231
1975050S18041 1975 23 SI MM HELOSE 1975-02-21 18:00:00 TS -23.8000 41.3000 reunion main 234 234 _____O______O_ -1 -23.8000 41.3000 99 9.90000 -23.8000 41.3000 TC 30 4 235
1975050S18041 1975 23 SI MM HELOSE 1975-02-21 21:00:00 TS -23.8650 41.1774 main 245 245 _____P______P_ -1 -23.8650 41.1774 99 -23.8650 41.1774 TC 30 2 241
1975050S18041 1975 23 SI MM HELOSE 1975-02-22 00:00:00 TS -23.9000 41.1000 reunion main 255 255 _____O______O_ -1 -23.9000 41.1000 99 9.90000 -23.9000 41.1000 TC 30 1 228
1975050S18041 1975 23 SI MM HELOSE 1975-02-22 03:00:00 TS -23.9650 41.0575 main 256 256 _____P______P_ -1 -23.9650 41.0575 99 -23.9650 41.0575 TC 30 1 220
1975050S18041 1975 23 SI MM HELOSE 1975-02-22 06:00:00 MX -24.0000 41.0000 reunion main 266 266 _____O______O_ -1 -24.0000 41.0000 3 9.90000 -24.0000 41.0000 EX 30 2 270
1975050S18041 1975 23 SI MM HELOSE 1975-02-22 09:00:00 MX -23.9650 40.8800 main 276 276 _____P______P_ -1 -23.9650 40.8800 3 -23.9650 40.8800 EX 30 3 290
1975050S18041 1975 23 SI MM HELOSE 1975-02-22 12:00:00 ET -23.9000 40.7000 reunion main 295 295 _____O______O_ -1 -23.9000 40.7000 99 9.90000 -23.9000 40.7000 EX 30 4 286
1975050S18041 1975 23 SI MM HELOSE 1975-02-22 15:00:00 ET -23.8501 40.4500 main 326 325 _____P______P_ -1 -23.8501 40.4500 99 -23.8501 40.4500 EX 30 12 307
1975050S18041 1975 23 SI MM HELOSE 1975-02-22 18:00:00 MX -23.1727 39.6545 reunion main 372 372 O____O___OO_O_ jtwc_sh SH221975 -21.5000 38.2000 -1 -23.8000 40.2000 99 9.90000 -21.5000 38.2000 TC -21.5000 38.2000 7 -23.8000 40.2000 EX 30 12 314
1975050S18041 1975 23 SI MM HELOSE 1975-02-22 21:00:00 MX -23.0087 39.4960 main 387 387 P____P___PP_P_ SH221975 -22.0132 38.8138 -1 -23.7574 40.0426 99 -22.0132 38.8138 TC -22.0046 38.6741 7 -23.7574 40.0426 EX 32 1 318
1975050S18041 1975 23 SI MM HELOSE 1975-02-23 00:00:00 MX -23.0623 39.5471 reunion main 389 379 O____O___OP_O_ jtwc_sh SH221975 -22.5000 39.3000 -1 -23.7000 39.9000 99 9.90000 -22.5000 39.3000 TC -22.4866 39.1004 7 -23.7000 39.9000 EX 35 2 156
1975050S18041 1975 23 SI MM HELOSE 1975-02-23 03:00:00 MX -23.1969 39.5844 main 382 382 P____P___PP_P_ SH221975 -22.9372 39.5554 -1 -23.5925 39.6924 99 -22.9372 39.5554 TC -22.9252 39.4266 7 -23.5925 39.6924 EX 35 3 0
1975050S18041 1975 23 SI MM HELOSE 1975-02-23 06:00:00 MX -23.3800 39.5600 reunion main 388 388 O____O___OO_O_ jtwc_sh SH221975 -23.3000 39.6000 -1 -23.5000 39.5000 3 9.90000 -23.3000 39.6000 TC 35 -23.3000 39.6000 2 -23.5000 39.5000 EX 35 4 197
1975050S18041 1975 23 SI MM HELOSE 1975-02-23 09:00:00 MX -23.5455 39.4696 main 401 387 P____P___PP_P_ SH221975 -23.5800 39.4953 -1 -23.4850 39.3851 3 -23.5800 39.4953 TC 35 -23.5975 39.5875 2 -23.4850 39.3851 EX 35 4 215
1975050S18041 1975 23 SI MM HELOSE 1975-02-23 12:00:00 MX -23.6865 39.3274 reunion main 387 376 O____O___OP_O_ jtwc_sh SH221975 -23.8000 39.3000 -1 -23.5000 39.3000 99 9.90000 -23.8000 39.3000 TC 35 -23.8323 39.4371 2 -23.5000 39.3000 EX 35 4 226
1975050S18041 1975 23 SI MM HELOSE 1975-02-23 15:00:00 MX -23.8052 39.1806 main 376 355 P____P___PP_P_ SH221975 -24.0075 39.1425 -1 -23.4925 39.2000 99 -24.0075 39.1425 TC 35 -24.0259 39.2181 2 -23.4925 39.2000 EX 35 4 228
1975050S18041 1975 23 SI MM HELOSE 1975-02-23 18:00:00 MX -23.9200 39.0400 reunion main 355 344 O____O___OO_O_ jtwc_sh SH221975 -24.2000 39.0000 -1 -23.5000 39.1000 99 9.90000 -24.2000 39.0000 TC 35 -24.2000 39.0000 2 -23.5000 39.1000 EX 35 3 221
1975050S18041 1975 23 SI MM HELOSE 1975-02-23 21:00:00 MX -24.0633 38.9341 main 344 334 P____P___PP_P_ SH221975 -24.4075 38.8924 -1 -23.5500 39.0000 99 -24.4075 38.8924 TC 35 -24.4015 38.8854 2 -23.5500 39.0000 EX 32 3 214
1975050S18041 1975 23 SI MM HELOSE 1975-02-24 00:00:00 MX -24.1975 38.8370 reunion main 334 325 O____O___OP_O_ jtwc_sh SH221975 -24.6000 38.8000 -1 -23.6000 38.9000 99 9.90000 -24.6000 38.8000 TC 35 -24.5874 38.7848 2 -23.6000 38.9000 EX 30 3 218
1975050S18041 1975 23 SI MM HELOSE 1975-02-24 03:00:00 MX -24.2879 38.7383 main 325 315 P____P___PP_P_ SH221975 -24.7650 38.7000 -1 -23.5775 38.7999 99 -24.7650 38.7000 TC 35 -24.7546 38.6917 2 -23.5775 38.7999 EX 30 3 225
1975050S18041 1975 23 SI MM HELOSE 1975-02-24 06:00:00 MX -24.3800 38.6400 reunion main 315 307 O____O___OO_O_ jtwc_sh SH221975 -24.9000 38.6000 -1 -23.6000 38.7000 3 9.90000 -24.9000 38.6000 TC 35 -24.9000 38.6000 2 -23.6000 38.7000 EX 30 3 219
1975050S18041 1975 23 SI MM HELOSE 1975-02-24 09:00:00 MX -24.5055 38.5421 main 307 301 P____P___PP_P_ SH221975 -25.0075 38.5000 -1 -23.7475 38.6074 3 -25.0075 38.5000 TC 35 -25.0175 38.4958 2 -23.7475 38.6074 EX 30 3 213
1975050S18041 1975 23 SI MM HELOSE 1975-02-24 12:00:00 MX -24.6630 38.4385 reunion main 301 293 O____O___OP_O_ jtwc_sh SH221975 -25.1000 38.4000 -1 -24.0000 38.5000 99 9.90000 -25.1000 38.4000 TC 35 -25.1150 38.3923 2 -24.0000 38.5000 EX 30 4 210
1975050S18041 1975 23 SI MM HELOSE 1975-02-24 15:00:00 MX -24.8610 38.3186 main 296 290 P____P___PP_P_ SH221975 -25.2075 38.3000 -1 -24.3425 38.3501 99 -25.2075 38.3000 TC 35 -25.2050 38.2927 2 -24.3425 38.3501 EX 30 5 209
1975050S18041 1975 23 SI MM HELOSE 1975-02-24 18:00:00 MX -25.0600 38.2000 reunion main 294 285 O____O___OO_O_ jtwc_sh SH221975 -25.3000 38.2000 -1 -24.7000 38.2000 99 9.90000 -25.3000 38.2000 TC 35 -25.3000 38.2000 2 -24.7000 38.2000 EX 30 4 212
1975050S18041 1975 23 SI MM HELOSE 1975-02-24 21:00:00 MX -25.1848 38.0947 main 289 285 P____P___PP_P_ SH221975 -25.3350 38.0924 -1 -24.9425 38.0774 99 -25.3350 38.0924 TC 35 -25.3690 38.1335 2 -24.9425 38.0774 EX 30 3 212
1975050S18041 1975 23 SI MM HELOSE 1975-02-25 00:00:00 MX -25.3305 38.0143 reunion main 285 285 O____O___OP_O_ jtwc_sh SH221975 -25.4000 38.0000 -1 -25.2000 38.0000 99 9.90000 -25.4000 38.0000 TC 35 -25.4523 38.0716 2 -25.2000 38.0000 EX 30 4 196
1975050S18041 1975 23 SI MM HELOSE 1975-02-25 03:00:00 MX -25.5549 37.9767 main 302 302 P____P___PP_P_ SH221975 -25.5475 37.9573 -1 -25.5475 37.9849 99 -25.5475 37.9573 TC 35 -25.5846 37.9989 2 -25.5475 37.9849 EX 30 6 187
1975050S18041 1975 23 SI MM HELOSE 1975-02-25 06:00:00 MX -25.8800 37.9400 reunion main 314 314 O____O___OO_O_ jtwc_sh SH221975 -25.8000 37.9000 -1 -26.0000 38.0000 4 9.90000 -25.8000 37.9000 TC 35 -25.8000 37.9000 2 -26.0000 38.0000 EX 30 8 188
1975050S18041 1975 23 SI MM HELOSE 1975-02-25 09:00:00 MX -26.3088 37.8500 main 339 330 P____P___PP_P_ SH221975 -26.1625 37.7725 -1 -26.5400 37.9853 4 -26.1625 37.7725 TC 35 -26.1390 37.7344 2 -26.5400 37.9853 EX 30 10 190
1975050S18041 1975 23 SI MM HELOSE 1975-02-25 12:00:00 MX -26.8321 37.7488 reunion main 357 357 O____O___OP_O_ jtwc_sh SH221975 -26.6000 37.6000 -1 -27.2000 38.0000 99 9.90000 -26.6000 37.6000 TC 35 -26.5604 37.5440 2 -27.2000 38.0000 EX 30 11 189
1975050S18041 1975 23 SI MM HELOSE 1975-02-25 15:00:00 MX -27.4073 37.6506 main 406 400 P____P___PP_P_ SH221975 -27.0501 37.3927 -1 -27.9549 38.0556 99 -27.0501 37.3927 TC 35 -27.0265 37.3564 2 -27.9549 38.0556 EX 30 12 186
1975050S18041 1975 23 SI MM HELOSE 1975-02-25 18:00:00 MX -28.0200 37.6000 reunion main 454 454 O____O___OO_O_ jtwc_sh SH221975 -27.5000 37.2000 -1 -28.8000 38.2000 99 9.90000 -27.5000 37.2000 TC 35 -27.5000 37.2000 2 -28.8000 38.2000 EX 30 12 0
1975050S18041 1975 23 SI MM HELOSE 1975-02-25 21:00:00 MX -28.6179 37.6271 main 495 495 P____P___PP_P_ SH221975 -27.9000 37.0699 -1 -29.7152 38.4841 99 -27.9000 37.0699 TC 30 -27.8595 37.0278 2 -29.7152 38.4841 EX 30 10 181
1975050S18041 1975 23 SI MM HELOSE 1975-02-26 00:00:00 MX -29.0509 37.5785 reunion main 509 499 O____O___OP_O_ jtwc_sh SH221975 -28.3000 37.0000 -1 -30.6000 38.8000 99 9.90000 -28.3000 37.0000 TC 25 -28.2290 36.9032 2 -30.6000 38.8000 EX 30 8 192
1975050S18041 1975 23 SI MM HELOSE 1975-02-26 03:00:00 MX -29.3572 37.4471 main 496 488 P____P___PP_P_ SH221975 -28.7124 36.9406 -1 -31.3449 39.0304 99 -28.7124 36.9406 TC 25 -28.6590 36.8768 2 -31.3449 39.0304 EX 27 6 203
1975050S18041 1975 23 SI MM HELOSE 1975-02-26 06:00:00 MX -29.6000 37.3143 reunion main 491 481 O____O___OO_O_ jtwc_sh SH221975 -29.2000 37.0000 -1 -32.0000 39.2000 5 9.90000 -29.2000 37.0000 TC 25 -29.2000 37.0000 1 -32.0000 39.2000 EX 25 5 202
1975050S18041 1975 23 SI MM HELOSE 1975-02-26 09:00:00 TS -29.8070 37.2344 main 487 487 P________PP___ SH221975 -29.7671 37.1967 -1 5 -29.7671 37.1967 TC 25 -29.8870 37.3098 1 EX 10 163
1975050S18041 1975 23 SI MM HELOSE 1975-02-26 12:00:00 TS -30.5646 37.6592 main 562 562 O________OP___ jtwc_sh SH221975 -30.5000 37.6000 -1 -30.5000 37.6000 TC 25 -30.6938 37.7775 1 19 152
1975050S18041 1975 23 SI MM HELOSE 1975-02-26 15:00:00 TS -31.4871 38.2725 main 658 658 P________PP___ SH221975 -31.4413 38.2302 -1 -31.4413 38.2302 TC 25 -31.5786 38.3570 1 23 149
1975050S18041 1975 23 SI MM HELOSE 1975-02-26 18:00:00 TS -32.5000 39.0000 main 772 O________OO___ jtwc_sh SH221975 -32.5000 39.0000 -1 -32.5000 39.0000 TC 25 -32.5000 39.0000 6 24 149

IBTrACS Databaseについて

本データベースは、米国NOAAが公開する1842年以降の世界の熱帯低気圧のベストトラックデータアーカイブInternational Best Track Archive for Climate Stewardship (IBTrACS)を、ウェブで閲覧しやすい形式に変換したものです。

最終更新日:2021-10-21